sensor_id;sensor_type;location;lat;lon;timestamp;P1;durP1;ratioP1;P2;durP2;ratioP2
58208;SDS011;44006;52.028;4.696;2023-03-01T00:00:10;20.55;;;13.90;;
58208;SDS011;44006;52.028;4.696;2023-03-01T00:02:35;19.77;;;13.05;;
58208;SDS011;44006;52.028;4.696;2023-03-01T00:05:01;17.67;;;12.82;;
58208;SDS011;44006;52.028;4.696;2023-03-01T00:07:27;17.90;;;12.77;;
58208;SDS011;44006;52.028;4.696;2023-03-01T00:09:52;21.02;;;13.60;;
58208;SDS011;44006;52.028;4.696;2023-03-01T00:12:17;19.40;;;12.85;;
58208;SDS011;44006;52.028;4.696;2023-03-01T00:14:43;19.55;;;13.52;;
58208;SDS011;44006;52.028;4.696;2023-03-01T00:17:08;20.45;;;13.75;;
58208;SDS011;44006;52.028;4.696;2023-03-01T00:19:35;21.48;;;14.80;;
58208;SDS011;44006;52.028;4.696;2023-03-01T00:22:01;20.77;;;14.00;;
58208;SDS011;44006;52.028;4.696;2023-03-01T00:24:26;19.85;;;14.18;;
58208;SDS011;44006;52.028;4.696;2023-03-01T00:26:54;21.67;;;13.45;;
58208;SDS011;44006;52.028;4.696;2023-03-01T00:29:21;21.65;;;14.85;;
58208;SDS011;44006;52.028;4.696;2023-03-01T00:31:46;23.00;;;14.80;;
58208;SDS011;44006;52.028;4.696;2023-03-01T00:34:11;23.83;;;14.52;;
58208;SDS011;44006;52.028;4.696;2023-03-01T00:36:37;22.38;;;14.88;;
58208;SDS011;44006;52.028;4.696;2023-03-01T00:39:03;23.52;;;15.43;;
58208;SDS011;44006;52.028;4.696;2023-03-01T00:41:29;22.38;;;14.80;;
58208;SDS011;44006;52.028;4.696;2023-03-01T00:43:55;26.02;;;15.50;;
58208;SDS011;44006;52.028;4.696;2023-03-01T00:46:22;23.65;;;15.65;;
58208;SDS011;44006;52.028;4.696;2023-03-01T00:48:48;24.50;;;16.20;;
58208;SDS011;44006;52.028;4.696;2023-03-01T00:51:14;25.45;;;17.42;;
58208;SDS011;44006;52.028;4.696;2023-03-01T00:53:40;26.10;;;17.58;;
58208;SDS011;44006;52.028;4.696;2023-03-01T00:56:06;27.13;;;18.60;;
58208;SDS011;44006;52.028;4.696;2023-03-01T00:58:32;28.90;;;18.77;;
58208;SDS011;44006;52.028;4.696;2023-03-01T01:00:58;29.05;;;18.75;;
58208;SDS011;44006;52.028;4.696;2023-03-01T01:03:25;27.58;;;20.60;;
58208;SDS011;44006;52.028;4.696;2023-03-01T01:05:51;29.65;;;20.38;;
58208;SDS011;44006;52.028;4.696;2023-03-01T01:08:17;26.20;;;19.63;;
58208;SDS011;44006;52.028;4.696;2023-03-01T01:10:43;30.80;;;21.35;;
58208;SDS011;44006;52.028;4.696;2023-03-01T01:13:09;31.75;;;21.08;;
58208;SDS011;44006;52.028;4.696;2023-03-01T01:15:34;32.42;;;20.85;;
58208;SDS011;44006;52.028;4.696;2023-03-01T01:18:00;32.40;;;21.65;;
58208;SDS011;44006;52.028;4.696;2023-03-01T01:20:25;30.15;;;20.98;;
58208;SDS011;44006;52.028;4.696;2023-03-01T01:22:51;33.88;;;22.50;;
58208;SDS011;44006;52.028;4.696;2023-03-01T01:25:16;30.95;;;20.73;;
58208;SDS011;44006;52.028;4.696;2023-03-01T01:27:41;30.48;;;21.75;;
58208;SDS011;44006;52.028;4.696;2023-03-01T01:30:07;33.03;;;22.83;;
58208;SDS011;44006;52.028;4.696;2023-03-01T01:32:32;30.48;;;21.05;;
58208;SDS011;44006;52.028;4.696;2023-03-01T01:34:57;32.92;;;21.23;;
58208;SDS011;44006;52.028;4.696;2023-03-01T01:37:23;32.42;;;22.25;;
58208;SDS011;44006;52.028;4.696;2023-03-01T01:39:56;29.23;;;20.55;;
58208;SDS011;44006;52.028;4.696;2023-03-01T01:42:21;31.55;;;20.67;;
58208;SDS011;44006;52.028;4.696;2023-03-01T01:44:47;29.77;;;21.23;;
58208;SDS011;44006;52.028;4.696;2023-03-01T01:47:14;30.58;;;21.60;;
58208;SDS011;44006;52.028;4.696;2023-03-01T01:49:42;31.02;;;21.55;;
58208;SDS011;44006;52.028;4.696;2023-03-01T01:54:36;34.05;;;20.98;;
58208;SDS011;44006;52.028;4.696;2023-03-01T01:57:06;34.13;;;22.58;;
58208;SDS011;44006;52.028;4.696;2023-03-01T01:59:32;32.22;;;21.85;;
58208;SDS011;44006;52.028;4.696;2023-03-01T02:01:58;31.73;;;21.70;;
58208;SDS011;44006;52.028;4.696;2023-03-01T02:04:24;33.38;;;22.17;;
58208;SDS011;44006;52.028;4.696;2023-03-01T02:07:01;28.00;;;20.95;;
58208;SDS011;44006;52.028;4.696;2023-03-01T02:09:28;33.30;;;22.50;;
58208;SDS011;44006;52.028;4.696;2023-03-01T02:11:55;30.52;;;22.38;;
58208;SDS011;44006;52.028;4.696;2023-03-01T02:14:20;32.50;;;23.05;;
58208;SDS011;44006;52.028;4.696;2023-03-01T02:16:45;34.28;;;22.73;;
58208;SDS011;44006;52.028;4.696;2023-03-01T02:19:13;34.38;;;23.58;;
58208;SDS011;44006;52.028;4.696;2023-03-01T02:24:18;33.15;;;22.98;;
58208;SDS011;44006;52.028;4.696;2023-03-01T02:26:47;36.58;;;24.60;;
58208;SDS011;44006;52.028;4.696;2023-03-01T02:29:13;34.75;;;23.27;;
58208;SDS011;44006;52.028;4.696;2023-03-01T02:31:38;30.95;;;22.38;;
58208;SDS011;44006;52.028;4.696;2023-03-01T02:34:07;33.60;;;22.70;;
58208;SDS011;44006;52.028;4.696;2023-03-01T02:36:37;33.22;;;23.17;;
58208;SDS011;44006;52.028;4.696;2023-03-01T02:39:04;36.92;;;22.75;;
58208;SDS011;44006;52.028;4.696;2023-03-01T02:41:34;36.15;;;23.02;;
58208;SDS011;44006;52.028;4.696;2023-03-01T02:44:00;34.45;;;22.63;;
58208;SDS011;44006;52.028;4.696;2023-03-01T02:46:26;33.60;;;22.88;;
58208;SDS011;44006;52.028;4.696;2023-03-01T02:48:52;34.80;;;23.30;;
58208;SDS011;44006;52.028;4.696;2023-03-01T02:56:20;33.78;;;21.95;;
58208;SDS011;44006;52.028;4.696;2023-03-01T02:58:45;38.72;;;23.52;;
58208;SDS011;44006;52.028;4.696;2023-03-01T03:01:13;34.25;;;22.77;;
58208;SDS011;44006;52.028;4.696;2023-03-01T03:03:40;33.85;;;22.42;;
58208;SDS011;44006;52.028;4.696;2023-03-01T03:06:06;36.30;;;22.30;;
58208;SDS011;44006;52.028;4.696;2023-03-01T03:08:31;33.78;;;22.27;;
58208;SDS011;44006;52.028;4.696;2023-03-01T03:10:56;35.80;;;22.00;;
58208;SDS011;44006;52.028;4.696;2023-03-01T03:13:21;32.85;;;22.58;;
58208;SDS011;44006;52.028;4.696;2023-03-01T03:15:47;34.42;;;22.27;;
58208;SDS011;44006;52.028;4.696;2023-03-01T03:18:13;35.30;;;22.42;;
58208;SDS011;44006;52.028;4.696;2023-03-01T03:20:39;33.72;;;22.00;;
58208;SDS011;44006;52.028;4.696;2023-03-01T03:23:05;35.45;;;22.30;;
58208;SDS011;44006;52.028;4.696;2023-03-01T03:25:30;31.80;;;22.02;;
58208;SDS011;44006;52.028;4.696;2023-03-01T03:27:56;33.88;;;22.55;;
58208;SDS011;44006;52.028;4.696;2023-03-01T03:30:22;32.47;;;22.92;;
58208;SDS011;44006;52.028;4.696;2023-03-01T03:32:47;37.30;;;22.45;;
58208;SDS011;44006;52.028;4.696;2023-03-01T03:35:18;31.70;;;21.77;;
58208;SDS011;44006;52.028;4.696;2023-03-01T03:37:44;32.53;;;22.58;;
58208;SDS011;44006;52.028;4.696;2023-03-01T03:40:28;34.00;;;22.42;;
58208;SDS011;44006;52.028;4.696;2023-03-01T03:42:54;32.30;;;20.92;;
58208;SDS011;44006;52.028;4.696;2023-03-01T03:45:19;32.45;;;22.13;;
58208;SDS011;44006;52.028;4.696;2023-03-01T03:47:45;36.75;;;22.50;;
58208;SDS011;44006;52.028;4.696;2023-03-01T03:50:11;35.50;;;22.27;;
58208;SDS011;44006;52.028;4.696;2023-03-01T03:52:36;37.55;;;22.75;;
58208;SDS011;44006;52.028;4.696;2023-03-01T03:55:02;36.60;;;22.48;;
58208;SDS011;44006;52.028;4.696;2023-03-01T03:57:27;38.20;;;22.77;;
58208;SDS011;44006;52.028;4.696;2023-03-01T03:59:52;38.78;;;24.05;;
58208;SDS011;44006;52.028;4.696;2023-03-01T04:02:17;37.72;;;22.90;;
58208;SDS011;44006;52.028;4.696;2023-03-01T04:04:47;37.05;;;23.45;;
58208;SDS011;44006;52.028;4.696;2023-03-01T04:07:15;38.25;;;24.73;;
58208;SDS011;44006;52.028;4.696;2023-03-01T04:09:40;37.45;;;24.30;;
58208;SDS011;44006;52.028;4.696;2023-03-01T04:12:07;33.13;;;22.05;;
58208;SDS011;44006;52.028;4.696;2023-03-01T04:14:32;28.73;;;19.70;;
58208;SDS011;44006;52.028;4.696;2023-03-01T04:16:58;28.50;;;19.30;;
58208;SDS011;44006;52.028;4.696;2023-03-01T04:19:23;26.02;;;18.48;;
58208;SDS011;44006;52.028;4.696;2023-03-01T04:21:48;25.52;;;17.85;;
58208;SDS011;44006;52.028;4.696;2023-03-01T04:24:14;26.30;;;19.08;;
58208;SDS011;44006;52.028;4.696;2023-03-01T04:26:39;23.73;;;17.73;;
58208;SDS011;44006;52.028;4.696;2023-03-01T04:29:04;25.67;;;17.65;;
58208;SDS011;44006;52.028;4.696;2023-03-01T04:31:29;23.00;;;16.83;;
58208;SDS011;44006;52.028;4.696;2023-03-01T04:33:55;27.13;;;17.95;;
58208;SDS011;44006;52.028;4.696;2023-03-01T04:36:21;22.48;;;17.48;;
58208;SDS011;44006;52.028;4.696;2023-03-01T04:38:47;22.75;;;16.98;;
58208;SDS011;44006;52.028;4.696;2023-03-01T04:41:13;21.90;;;16.55;;
58208;SDS011;44006;52.028;4.696;2023-03-01T04:43:38;22.83;;;16.80;;
58208;SDS011;44006;52.028;4.696;2023-03-01T04:46:05;23.00;;;17.02;;
58208;SDS011;44006;52.028;4.696;2023-03-01T04:48:31;21.08;;;16.05;;
58208;SDS011;44006;52.028;4.696;2023-03-01T04:50:58;20.98;;;16.63;;
58208;SDS011;44006;52.028;4.696;2023-03-01T04:53:23;20.52;;;16.50;;
58208;SDS011;44006;52.028;4.696;2023-03-01T04:55:49;22.85;;;17.73;;
58208;SDS011;44006;52.028;4.696;2023-03-01T04:58:16;26.17;;;18.58;;
58208;SDS011;44006;52.028;4.696;2023-03-01T05:00:41;24.08;;;18.38;;
58208;SDS011;44006;52.028;4.696;2023-03-01T05:03:07;24.83;;;18.58;;
58208;SDS011;44006;52.028;4.696;2023-03-01T05:05:34;25.15;;;18.67;;
58208;SDS011;44006;52.028;4.696;2023-03-01T05:08:00;24.80;;;18.23;;
58208;SDS011;44006;52.028;4.696;2023-03-01T05:10:26;25.88;;;18.65;;
58208;SDS011;44006;52.028;4.696;2023-03-01T05:12:54;27.65;;;19.42;;
58208;SDS011;44006;52.028;4.696;2023-03-01T05:15:19;24.13;;;18.58;;
58208;SDS011;44006;52.028;4.696;2023-03-01T05:17:46;25.40;;;18.98;;
58208;SDS011;44006;52.028;4.696;2023-03-01T05:20:11;22.05;;;17.15;;
58208;SDS011;44006;52.028;4.696;2023-03-01T05:22:37;24.23;;;17.88;;
58208;SDS011;44006;52.028;4.696;2023-03-01T05:25:03;21.50;;;16.52;;
58208;SDS011;44006;52.028;4.696;2023-03-01T05:27:28;24.73;;;17.48;;
58208;SDS011;44006;52.028;4.696;2023-03-01T05:29:55;21.63;;;16.77;;
58208;SDS011;44006;52.028;4.696;2023-03-01T05:32:20;20.90;;;15.82;;
58208;SDS011;44006;52.028;4.696;2023-03-01T05:34:45;20.80;;;15.98;;
58208;SDS011;44006;52.028;4.696;2023-03-01T05:37:11;20.58;;;15.88;;
58208;SDS011;44006;52.028;4.696;2023-03-01T05:39:36;21.50;;;16.48;;
58208;SDS011;44006;52.028;4.696;2023-03-01T05:42:02;19.75;;;16.05;;
58208;SDS011;44006;52.028;4.696;2023-03-01T05:44:27;21.35;;;15.52;;
58208;SDS011;44006;52.028;4.696;2023-03-01T05:46:53;21.00;;;15.27;;
58208;SDS011;44006;52.028;4.696;2023-03-01T05:49:19;21.92;;;16.25;;
58208;SDS011;44006;52.028;4.696;2023-03-01T05:51:47;20.92;;;15.32;;
58208;SDS011;44006;52.028;4.696;2023-03-01T05:54:13;20.20;;;15.45;;
58208;SDS011;44006;52.028;4.696;2023-03-01T05:56:38;20.83;;;15.23;;
58208;SDS011;44006;52.028;4.696;2023-03-01T05:59:04;21.48;;;15.48;;
58208;SDS011;44006;52.028;4.696;2023-03-01T06:01:30;21.42;;;15.82;;
58208;SDS011;44006;52.028;4.696;2023-03-01T06:03:55;20.60;;;15.23;;
58208;SDS011;44006;52.028;4.696;2023-03-01T06:06:21;19.65;;;14.82;;
58208;SDS011;44006;52.028;4.696;2023-03-01T06:08:47;20.63;;;15.23;;
58208;SDS011;44006;52.028;4.696;2023-03-01T06:11:12;19.65;;;14.30;;
58208;SDS011;44006;52.028;4.696;2023-03-01T06:13:37;19.48;;;14.27;;
58208;SDS011;44006;52.028;4.696;2023-03-01T06:16:06;17.33;;;14.38;;
58208;SDS011;44006;52.028;4.696;2023-03-01T06:18:31;18.00;;;13.88;;
58208;SDS011;44006;52.028;4.696;2023-03-01T06:20:56;18.27;;;14.02;;
58208;SDS011;44006;52.028;4.696;2023-03-01T06:23:22;17.77;;;13.77;;
58208;SDS011;44006;52.028;4.696;2023-03-01T06:25:48;17.20;;;13.25;;
58208;SDS011;44006;52.028;4.696;2023-03-01T06:28:13;17.67;;;13.38;;
58208;SDS011;44006;52.028;4.696;2023-03-01T06:30:38;17.58;;;13.55;;
58208;SDS011;44006;52.028;4.696;2023-03-01T06:33:03;17.48;;;13.55;;
58208;SDS011;44006;52.028;4.696;2023-03-01T06:35:29;18.40;;;13.05;;
58208;SDS011;44006;52.028;4.696;2023-03-01T06:37:56;15.90;;;12.73;;
58208;SDS011;44006;52.028;4.696;2023-03-01T06:40:22;16.35;;;13.38;;
58208;SDS011;44006;52.028;4.696;2023-03-01T06:42:48;18.33;;;13.75;;
58208;SDS011;44006;52.028;4.696;2023-03-01T06:45:14;17.77;;;13.52;;
58208;SDS011;44006;52.028;4.696;2023-03-01T06:47:39;17.33;;;13.63;;
58208;SDS011;44006;52.028;4.696;2023-03-01T06:50:05;17.83;;;13.57;;
58208;SDS011;44006;52.028;4.696;2023-03-01T06:52:30;18.80;;;13.35;;
58208;SDS011;44006;52.028;4.696;2023-03-01T06:54:56;17.67;;;13.45;;
58208;SDS011;44006;52.028;4.696;2023-03-01T06:57:21;18.58;;;12.85;;
58208;SDS011;44006;52.028;4.696;2023-03-01T06:59:47;18.13;;;13.60;;
58208;SDS011;44006;52.028;4.696;2023-03-01T07:02:12;19.02;;;14.55;;
58208;SDS011;44006;52.028;4.696;2023-03-01T07:04:38;18.85;;;13.38;;
58208;SDS011;44006;52.028;4.696;2023-03-01T07:07:03;19.10;;;13.45;;
58208;SDS011;44006;52.028;4.696;2023-03-01T07:09:29;17.95;;;13.45;;
58208;SDS011;44006;52.028;4.696;2023-03-01T07:11:54;19.98;;;14.27;;
58208;SDS011;44006;52.028;4.696;2023-03-01T07:14:19;20.60;;;14.38;;
58208;SDS011;44006;52.028;4.696;2023-03-01T07:16:45;21.48;;;15.07;;
58208;SDS011;44006;52.028;4.696;2023-03-01T07:19:10;20.77;;;14.75;;
58208;SDS011;44006;52.028;4.696;2023-03-01T07:21:35;21.85;;;15.52;;
58208;SDS011;44006;52.028;4.696;2023-03-01T07:24:03;21.23;;;15.10;;
58208;SDS011;44006;52.028;4.696;2023-03-01T07:26:28;21.67;;;15.43;;
58208;SDS011;44006;52.028;4.696;2023-03-01T07:28:54;23.35;;;14.95;;
58208;SDS011;44006;52.028;4.696;2023-03-01T07:31:19;25.40;;;16.70;;
58208;SDS011;44006;52.028;4.696;2023-03-01T07:33:44;26.08;;;16.20;;
58208;SDS011;44006;52.028;4.696;2023-03-01T07:36:09;24.80;;;15.98;;
58208;SDS011;44006;52.028;4.696;2023-03-01T07:38:35;24.55;;;15.95;;
58208;SDS011;44006;52.028;4.696;2023-03-01T07:41:01;25.95;;;15.75;;
58208;SDS011;44006;52.028;4.696;2023-03-01T07:43:27;24.88;;;16.33;;
58208;SDS011;44006;52.028;4.696;2023-03-01T07:45:52;23.23;;;17.10;;
58208;SDS011;44006;52.028;4.696;2023-03-01T07:48:18;25.13;;;16.17;;
58208;SDS011;44006;52.028;4.696;2023-03-01T07:50:43;26.23;;;17.10;;
58208;SDS011;44006;52.028;4.696;2023-03-01T07:53:09;24.85;;;16.13;;
58208;SDS011;44006;52.028;4.696;2023-03-01T07:55:34;27.92;;;17.33;;
58208;SDS011;44006;52.028;4.696;2023-03-01T07:57:59;25.65;;;16.63;;
58208;SDS011;44006;52.028;4.696;2023-03-01T08:00:24;28.92;;;17.83;;
58208;SDS011;44006;52.028;4.696;2023-03-01T08:02:50;26.27;;;16.55;;
58208;SDS011;44006;52.028;4.696;2023-03-01T08:05:15;27.45;;;17.75;;
58208;SDS011;44006;52.028;4.696;2023-03-01T08:07:40;27.23;;;16.65;;
58208;SDS011;44006;52.028;4.696;2023-03-01T08:10:05;26.55;;;16.67;;
58208;SDS011;44006;52.028;4.696;2023-03-01T08:12:31;33.53;;;17.95;;
58208;SDS011;44006;52.028;4.696;2023-03-01T08:14:56;28.67;;;17.98;;
58208;SDS011;44006;52.028;4.696;2023-03-01T08:17:22;30.67;;;17.45;;
58208;SDS011;44006;52.028;4.696;2023-03-01T08:19:47;29.80;;;17.65;;
58208;SDS011;44006;52.028;4.696;2023-03-01T08:22:12;31.45;;;17.17;;
58208;SDS011;44006;52.028;4.696;2023-03-01T08:24:37;26.67;;;16.73;;
58208;SDS011;44006;52.028;4.696;2023-03-01T08:27:03;27.33;;;16.00;;
58208;SDS011;44006;52.028;4.696;2023-03-01T08:29:30;23.60;;;14.85;;
58208;SDS011;44006;52.028;4.696;2023-03-01T08:31:55;25.85;;;15.00;;
58208;SDS011;44006;52.028;4.696;2023-03-01T08:34:21;23.25;;;14.23;;
58208;SDS011;44006;52.028;4.696;2023-03-01T08:36:46;24.27;;;13.98;;
58208;SDS011;44006;52.028;4.696;2023-03-01T08:39:13;25.83;;;14.68;;
58208;SDS011;44006;52.028;4.696;2023-03-01T08:41:39;26.20;;;16.02;;
58208;SDS011;44006;52.028;4.696;2023-03-01T08:44:05;27.15;;;16.20;;
58208;SDS011;44006;52.028;4.696;2023-03-01T08:46:32;31.20;;;16.35;;
58208;SDS011;44006;52.028;4.696;2023-03-01T08:48:57;26.80;;;16.10;;
58208;SDS011;44006;52.028;4.696;2023-03-01T08:51:23;26.15;;;15.85;;
58208;SDS011;44006;52.028;4.696;2023-03-01T08:53:48;26.17;;;15.77;;
58208;SDS011;44006;52.028;4.696;2023-03-01T08:56:14;28.83;;;17.20;;
58208;SDS011;44006;52.028;4.696;2023-03-01T08:58:39;27.67;;;16.80;;
58208;SDS011;44006;52.028;4.696;2023-03-01T09:01:11;30.27;;;17.45;;
58208;SDS011;44006;52.028;4.696;2023-03-01T09:03:37;26.73;;;16.33;;
58208;SDS011;44006;52.028;4.696;2023-03-01T09:06:03;28.40;;;16.92;;
58208;SDS011;44006;52.028;4.696;2023-03-01T09:08:28;26.02;;;16.05;;
58208;SDS011;44006;52.028;4.696;2023-03-01T09:10:53;27.02;;;16.70;;
58208;SDS011;44006;52.028;4.696;2023-03-01T09:13:19;23.77;;;15.35;;
58208;SDS011;44006;52.028;4.696;2023-03-01T09:15:45;25.20;;;15.52;;
58208;SDS011;44006;52.028;4.696;2023-03-01T09:18:10;23.73;;;15.27;;
58208;SDS011;44006;52.028;4.696;2023-03-01T09:20:35;27.52;;;14.50;;
58208;SDS011;44006;52.028;4.696;2023-03-01T09:23:01;24.85;;;14.43;;
58208;SDS011;44006;52.028;4.696;2023-03-01T09:25:26;23.50;;;14.07;;
58208;SDS011;44006;52.028;4.696;2023-03-01T09:27:52;23.63;;;14.27;;
58208;SDS011;44006;52.028;4.696;2023-03-01T09:30:17;25.48;;;14.98;;
58208;SDS011;44006;52.028;4.696;2023-03-01T09:32:43;22.55;;;14.30;;
58208;SDS011;44006;52.028;4.696;2023-03-01T09:35:10;21.50;;;13.50;;
58208;SDS011;44006;52.028;4.696;2023-03-01T09:37:35;20.15;;;12.98;;
58208;SDS011;44006;52.028;4.696;2023-03-01T09:40:01;21.30;;;12.88;;
58208;SDS011;44006;52.028;4.696;2023-03-01T09:42:27;21.08;;;12.93;;
58208;SDS011;44006;52.028;4.696;2023-03-01T09:45:06;22.40;;;12.43;;
58208;SDS011;44006;52.028;4.696;2023-03-01T09:47:36;18.40;;;11.68;;
58208;SDS011;44006;52.028;4.696;2023-03-01T09:52:34;17.70;;;10.85;;
58208;SDS011;44006;52.028;4.696;2023-03-01T09:55:01;14.82;;;10.65;;
58208;SDS011;44006;52.028;4.696;2023-03-01T09:57:36;14.68;;;9.35;;
58208;SDS011;44006;52.028;4.696;2023-03-01T10:10:26;15.90;;;9.63;;
58208;SDS011;44006;52.028;4.696;2023-03-01T10:12:52;12.73;;;8.32;;
58208;SDS011;44006;52.028;4.696;2023-03-01T10:15:19;13.73;;;8.18;;
58208;SDS011;44006;52.028;4.696;2023-03-01T10:17:51;13.15;;;8.15;;
58208;SDS011;44006;52.028;4.696;2023-03-01T10:22:46;14.75;;;9.88;;
58208;SDS011;44006;52.028;4.696;2023-03-01T10:25:17;13.48;;;9.20;;
58208;SDS011;44006;52.028;4.696;2023-03-01T10:32:36;13.52;;;8.93;;
58208;SDS011;44006;52.028;4.696;2023-03-01T10:35:01;13.00;;;9.13;;
58208;SDS011;44006;52.028;4.696;2023-03-01T10:37:26;13.63;;;8.60;;
58208;SDS011;44006;52.028;4.696;2023-03-01T10:40:01;12.80;;;9.18;;
58208;SDS011;44006;52.028;4.696;2023-03-01T10:42:34;15.27;;;9.68;;
58208;SDS011;44006;52.028;4.696;2023-03-01T10:45:17;13.63;;;8.93;;
58208;SDS011;44006;52.028;4.696;2023-03-01T10:48:02;13.93;;;9.65;;
58208;SDS011;44006;52.028;4.696;2023-03-01T10:50:28;16.67;;;10.80;;
58208;SDS011;44006;52.028;4.696;2023-03-01T10:52:57;15.77;;;9.77;;
58208;SDS011;44006;52.028;4.696;2023-03-01T10:55:28;15.93;;;10.70;;
58208;SDS011;44006;52.028;4.696;2023-03-01T11:01:24;16.27;;;10.23;;
58208;SDS011;44006;52.028;4.696;2023-03-01T11:03:35;15.27;;;10.25;;
58208;SDS011;44006;52.028;4.696;2023-03-01T11:06:02;15.35;;;10.13;;
58208;SDS011;44006;52.028;4.696;2023-03-01T11:13:36;27.17;;;13.27;;
58208;SDS011;44006;52.028;4.696;2023-03-01T11:16:05;22.20;;;11.40;;
58208;SDS011;44006;52.028;4.696;2023-03-01T11:18:31;15.70;;;9.02;;
58208;SDS011;44006;52.028;4.696;2023-03-01T11:20:56;15.82;;;8.45;;
58208;SDS011;44006;52.028;4.696;2023-03-01T11:23:22;11.10;;;7.40;;
58208;SDS011;44006;52.028;4.696;2023-03-01T11:25:51;12.75;;;7.47;;
58208;SDS011;44006;52.028;4.696;2023-03-01T11:28:19;11.07;;;6.95;;
58208;SDS011;44006;52.028;4.696;2023-03-01T11:30:49;13.05;;;6.88;;
58208;SDS011;44006;52.028;4.696;2023-03-01T11:33:18;11.23;;;7.18;;
58208;SDS011;44006;52.028;4.696;2023-03-01T11:38:23;11.85;;;6.40;;
58208;SDS011;44006;52.028;4.696;2023-03-01T11:40:52;10.13;;;7.10;;
58208;SDS011;44006;52.028;4.696;2023-03-01T11:43:35;10.07;;;6.50;;
58208;SDS011;44006;52.028;4.696;2023-03-01T12:14:49;10.98;;;5.47;;
58208;SDS011;44006;52.028;4.696;2023-03-01T12:22:32;11.82;;;5.55;;
58208;SDS011;44006;52.028;4.696;2023-03-01T12:40:32;10.18;;;5.75;;
58208;SDS011;44006;52.028;4.696;2023-03-01T12:48:04;10.52;;;5.57;;
58208;SDS011;44006;52.028;4.696;2023-03-01T12:50:42;9.85;;;5.40;;
58208;SDS011;44006;52.028;4.696;2023-03-01T12:53:44;7.68;;;4.88;;
58208;SDS011;44006;52.028;4.696;2023-03-01T12:56:04;8.25;;;4.80;;
58208;SDS011;44006;52.028;4.696;2023-03-01T12:58:35;7.80;;;5.47;;
58208;SDS011;44006;52.028;4.696;2023-03-01T13:06:21;9.00;;;4.90;;
58208;SDS011;44006;52.028;4.696;2023-03-01T13:09:53;9.10;;;5.20;;
58208;SDS011;44006;52.028;4.696;2023-03-01T13:11:44;8.43;;;5.45;;
58208;SDS011;44006;52.028;4.696;2023-03-01T13:16:50;8.82;;;5.80;;
58208;SDS011;44006;52.028;4.696;2023-03-01T13:19:16;10.35;;;5.38;;
58208;SDS011;44006;52.028;4.696;2023-03-01T13:21:42;10.50;;;5.57;;
58208;SDS011;44006;52.028;4.696;2023-03-01T13:34:50;7.80;;;4.80;;
58208;SDS011;44006;52.028;4.696;2023-03-01T13:37:20;8.48;;;5.45;;
58208;SDS011;44006;52.028;4.696;2023-03-01T13:39:46;9.73;;;5.15;;
58208;SDS011;44006;52.028;4.696;2023-03-01T13:42:46;9.38;;;5.40;;
58208;SDS011;44006;52.028;4.696;2023-03-01T13:45:26;8.55;;;5.38;;
58208;SDS011;44006;52.028;4.696;2023-03-01T13:47:55;8.77;;;5.15;;
58208;SDS011;44006;52.028;4.696;2023-03-01T13:50:24;7.93;;;5.20;;
58208;SDS011;44006;52.028;4.696;2023-03-01T13:55:19;8.65;;;5.43;;
58208;SDS011;44006;52.028;4.696;2023-03-01T13:57:49;7.78;;;4.88;;
58208;SDS011;44006;52.028;4.696;2023-03-01T14:00:34;7.40;;;5.32;;
58208;SDS011;44006;52.028;4.696;2023-03-01T14:03:11;8.43;;;5.72;;
58208;SDS011;44006;52.028;4.696;2023-03-01T14:05:36;8.32;;;5.38;;
58208;SDS011;44006;52.028;4.696;2023-03-01T14:08:03;9.65;;;5.90;;
58208;SDS011;44006;52.028;4.696;2023-03-01T14:10:31;10.48;;;6.30;;
58208;SDS011;44006;52.028;4.696;2023-03-01T14:13:01;9.68;;;5.70;;
58208;SDS011;44006;52.028;4.696;2023-03-01T14:15:33;7.20;;;4.90;;
58208;SDS011;44006;52.028;4.696;2023-03-01T14:18:04;9.95;;;4.72;;
58208;SDS011;44006;52.028;4.696;2023-03-01T14:20:33;9.73;;;5.45;;
58208;SDS011;44006;52.028;4.696;2023-03-01T14:23:03;7.40;;;5.18;;
58208;SDS011;44006;52.028;4.696;2023-03-01T14:25:34;7.60;;;4.78;;
58208;SDS011;44006;52.028;4.696;2023-03-01T14:30:36;9.27;;;5.38;;
58208;SDS011;44006;52.028;4.696;2023-03-01T14:33:04;8.63;;;4.95;;
58208;SDS011;44006;52.028;4.696;2023-03-01T14:35:32;8.13;;;5.15;;
58208;SDS011;44006;52.028;4.696;2023-03-01T14:37:57;7.65;;;4.95;;
58208;SDS011;44006;52.028;4.696;2023-03-01T14:40:27;9.20;;;4.95;;
58208;SDS011;44006;52.028;4.696;2023-03-01T14:42:53;6.93;;;4.68;;
58208;SDS011;44006;52.028;4.696;2023-03-01T14:45:19;9.05;;;4.97;;
58208;SDS011;44006;52.028;4.696;2023-03-01T14:47:45;8.57;;;4.80;;
58208;SDS011;44006;52.028;4.696;2023-03-01T14:50:19;8.80;;;5.03;;
58208;SDS011;44006;52.028;4.696;2023-03-01T14:52:47;6.55;;;4.25;;
58208;SDS011;44006;52.028;4.696;2023-03-01T14:55:25;8.13;;;4.75;;
58208;SDS011;44006;52.028;4.696;2023-03-01T14:57:51;8.65;;;4.85;;
58208;SDS011;44006;52.028;4.696;2023-03-01T15:00:18;7.13;;;4.65;;
58208;SDS011;44006;52.028;4.696;2023-03-01T15:02:45;8.23;;;4.68;;
58208;SDS011;44006;52.028;4.696;2023-03-01T15:05:13;6.85;;;4.60;;
58208;SDS011;44006;52.028;4.696;2023-03-01T15:07:39;10.43;;;4.63;;
58208;SDS011;44006;52.028;4.696;2023-03-01T15:10:06;8.23;;;4.45;;
58208;SDS011;44006;52.028;4.696;2023-03-01T15:14:58;8.90;;;5.18;;
58208;SDS011;44006;52.028;4.696;2023-03-01T15:19:49;9.27;;;4.60;;
58208;SDS011;44006;52.028;4.696;2023-03-01T15:22:17;8.00;;;4.72;;
58208;SDS011;44006;52.028;4.696;2023-03-01T15:24:46;8.68;;;4.70;;
58208;SDS011;44006;52.028;4.696;2023-03-01T15:27:14;7.32;;;4.47;;
58208;SDS011;44006;52.028;4.696;2023-03-01T15:29:40;7.35;;;4.63;;
58208;SDS011;44006;52.028;4.696;2023-03-01T15:34:53;8.10;;;4.50;;
58208;SDS011;44006;52.028;4.696;2023-03-01T15:39:59;7.38;;;4.43;;
58208;SDS011;44006;52.028;4.696;2023-03-01T15:44:50;10.38;;;4.95;;
58208;SDS011;44006;52.028;4.696;2023-03-01T15:47:32;6.88;;;4.40;;
58208;SDS011;44006;52.028;4.696;2023-03-01T15:49:58;6.40;;;3.95;;
58208;SDS011;44006;52.028;4.696;2023-03-01T15:52:25;9.27;;;4.10;;
58208;SDS011;44006;52.028;4.696;2023-03-01T15:54:58;7.68;;;4.82;;
58208;SDS011;44006;52.028;4.696;2023-03-01T15:57:24;7.20;;;4.20;;
58208;SDS011;44006;52.028;4.696;2023-03-01T15:59:49;8.43;;;4.47;;
58208;SDS011;44006;52.028;4.696;2023-03-01T16:02:16;6.85;;;4.47;;
58208;SDS011;44006;52.028;4.696;2023-03-01T16:04:42;7.10;;;4.25;;
58208;SDS011;44006;52.028;4.696;2023-03-01T16:07:08;7.72;;;4.82;;
58208;SDS011;44006;52.028;4.696;2023-03-01T16:09:35;8.68;;;5.03;;
58208;SDS011;44006;52.028;4.696;2023-03-01T16:12:01;11.70;;;4.53;;
58208;SDS011;44006;52.028;4.696;2023-03-01T16:14:27;7.72;;;4.75;;
58208;SDS011;44006;52.028;4.696;2023-03-01T16:16:52;7.55;;;4.28;;
58208;SDS011;44006;52.028;4.696;2023-03-01T16:19:17;8.18;;;4.47;;
58208;SDS011;44006;52.028;4.696;2023-03-01T16:21:42;8.07;;;4.57;;
58208;SDS011;44006;52.028;4.696;2023-03-01T16:24:08;8.30;;;4.70;;
58208;SDS011;44006;52.028;4.696;2023-03-01T16:26:34;7.95;;;4.50;;
58208;SDS011;44006;52.028;4.696;2023-03-01T16:29:01;7.85;;;5.07;;
58208;SDS011;44006;52.028;4.696;2023-03-01T16:31:26;7.97;;;4.93;;
58208;SDS011;44006;52.028;4.696;2023-03-01T16:33:56;9.45;;;5.25;;
58208;SDS011;44006;52.028;4.696;2023-03-01T16:36:21;8.38;;;4.65;;
58208;SDS011;44006;52.028;4.696;2023-03-01T16:38:49;11.35;;;5.60;;